createdAt,value
2022-11-30T00:03:23.971Z,72.62
2022-11-30T00:07:26.032Z,71.50
2022-11-30T00:11:29.605Z,78.55
2022-11-30T00:15:31.364Z,73.22
2022-11-30T00:19:33.021Z,80.00
2022-11-30T00:23:40.402Z,86.37
2022-11-30T00:27:42.320Z,67.57
2022-11-30T00:31:43.967Z,73.10
2022-11-30T00:35:59.369Z,72.32
2022-11-30T00:40:01.014Z,78.47
2022-11-30T00:44:02.716Z,78.18
2022-11-30T00:48:04.507Z,78.25
2022-11-30T00:52:06.409Z,64.30
2022-11-30T00:56:09.110Z,71.60
2022-11-30T01:00:11.138Z,65.30
2022-11-30T01:04:12.773Z,62.05
2022-11-30T01:08:14.435Z,61.37
2022-11-30T01:12:16.072Z,55.53
2022-11-30T01:16:20.902Z,63.87
2022-11-30T01:20:22.554Z,60.40
2022-11-30T01:24:24.276Z,55.70
2022-11-30T01:28:25.892Z,60.08
2022-11-30T01:32:27.731Z,61.72
2022-11-30T01:36:29.379Z,69.87
2022-11-30T01:40:31.020Z,64.12
2022-11-30T01:44:32.621Z,73.87
2022-11-30T01:48:34.302Z,73.90
2022-11-30T01:52:40.202Z,74.37
2022-11-30T01:56:47.713Z,110.35
2022-11-30T02:00:49.592Z,79.37
2022-11-30T02:04:51.360Z,82.90
2022-11-30T02:08:54.028Z,81.35
2022-11-30T02:13:13.683Z,87.37
2022-11-30T02:17:58.604Z,80.40
2022-11-30T02:22:04.639Z,91.47
2022-11-30T02:26:36.390Z,91.72
2022-11-30T02:30:43.713Z,95.30
2022-11-30T02:34:48.224Z,90.78
2022-11-30T02:38:50.610Z,98.40
2022-11-30T02:42:54.058Z,99.65
2022-11-30T02:47:20.401Z,92.72
2022-11-30T02:51:26.475Z,101.15
2022-11-30T02:55:29.074Z,112.45
2022-11-30T02:59:30.810Z,98.45
2022-11-30T03:03:32.502Z,96.72
2022-11-30T03:07:34.182Z,97.88
2022-11-30T03:11:36.895Z,90.90
2022-11-30T03:15:38.590Z,84.15
2022-11-30T03:19:40.247Z,81.00
2022-11-30T03:23:41.910Z,76.28
2022-11-30T03:27:43.777Z,73.25
2022-11-30T03:31:45.477Z,73.90
2022-11-30T03:35:47.743Z,77.95
2022-11-30T03:39:52.479Z,87.10
2022-11-30T03:43:58.291Z,71.80
2022-11-30T03:47:59.897Z,89.53
2022-11-30T03:52:01.612Z,76.72
2022-11-30T03:56:06.119Z,93.45
2022-11-30T04:00:08.385Z,79.18
2022-11-30T04:04:11.638Z,70.40
2022-11-30T04:08:13.427Z,72.90
2022-11-30T04:12:15.382Z,71.72
2022-11-30T04:16:17.108Z,73.37
2022-11-30T04:20:18.916Z,64.93
2022-11-30T04:24:20.568Z,66.62
2022-11-30T04:28:22.464Z,63.85
2022-11-30T04:32:24.117Z,58.42
2022-11-30T04:36:25.771Z,58.72
2022-11-30T04:40:27.409Z,55.97
2022-11-30T04:44:29.051Z,58.15
2022-11-30T04:48:30.728Z,64.00
2022-11-30T04:52:32.723Z,68.32
2022-11-30T04:56:34.537Z,61.42
2022-11-30T05:00:36.798Z,57.85
2022-11-30T05:04:38.470Z,61.30
2022-11-30T05:08:40.127Z,60.17
2022-11-30T05:12:41.764Z,58.08
2022-11-30T05:16:43.413Z,57.28
2022-11-30T05:20:49.854Z,61.60
2022-11-30T05:24:51.463Z,59.93
2022-11-30T05:28:53.216Z,56.67
2022-11-30T05:32:54.842Z,54.00
2022-11-30T05:36:56.466Z,53.78
2022-11-30T05:41:01.973Z,49.17
2022-11-30T05:45:04.020Z,51.28
2022-11-30T05:49:05.776Z,44.17
2022-11-30T05:53:07.367Z,44.72
2022-11-30T05:57:09.003Z,48.33
2022-11-30T06:01:27.743Z,48.97
2022-11-30T06:05:29.349Z,49.35
2022-11-30T06:09:30.940Z,51.08
2022-11-30T06:13:32.672Z,51.88
2022-11-30T06:17:35.191Z,51.05
2022-11-30T06:21:36.858Z,52.20
2022-11-30T06:25:38.470Z,51.58
2022-11-30T06:29:40.148Z,49.33
2022-11-30T06:33:41.847Z,52.42
2022-11-30T06:37:43.575Z,49.38
2022-11-30T06:41:47.903Z,49.20
2022-11-30T06:45:51.788Z,48.97
2022-11-30T06:49:53.814Z,50.58
2022-11-30T06:53:55.456Z,47.72
2022-11-30T06:58:08.130Z,50.05
2022-11-30T07:02:17.231Z,51.83
2022-11-30T07:06:19.849Z,46.92
2022-11-30T07:10:22.800Z,45.28
2022-11-30T07:14:25.417Z,43.90
2022-11-30T07:18:31.661Z,46.60
2022-11-30T07:22:33.851Z,46.83
2022-11-30T07:26:35.617Z,43.47
2022-11-30T07:30:37.207Z,42.05
2022-11-30T07:34:38.947Z,40.80
2022-11-30T07:38:40.906Z,41.72
2022-11-30T07:42:42.548Z,43.35
2022-11-30T07:46:44.234Z,49.00
2022-11-30T07:50:46.804Z,40.78
2022-11-30T07:54:48.902Z,48.67
2022-11-30T07:58:53.259Z,43.78
2022-11-30T08:02:54.874Z,43.83
2022-11-30T08:06:56.607Z,43.33
2022-11-30T08:10:59.165Z,43.10
2022-11-30T08:19:22.381Z,44.10
2022-11-30T08:23:24.089Z,46.88
2022-11-30T08:27:26.286Z,48.45
2022-11-30T08:31:37.820Z,48.10
2022-11-30T08:35:39.470Z,44.63
2022-11-30T08:39:41.115Z,47.25
2022-11-30T08:43:43.007Z,43.45
2022-11-30T08:47:44.701Z,40.55
2022-11-30T08:56:13.563Z,43.25
2022-11-30T09:00:15.971Z,46.25
2022-11-30T09:04:18.033Z,46.47
2022-11-30T09:08:19.678Z,47.13
2022-11-30T09:12:21.312Z,50.47
2022-11-30T09:16:23.995Z,47.03
2022-11-30T09:20:25.623Z,46.63
2022-11-30T09:24:27.304Z,43.40
2022-11-30T09:28:32.317Z,48.70
2022-11-30T09:32:34.024Z,49.28
2022-11-30T09:36:36.513Z,64.55
2022-11-30T09:40:41.412Z,60.28
2022-11-30T09:45:01.954Z,60.92
2022-11-30T09:49:13.294Z,61.00
2022-11-30T09:53:39.923Z,64.78
2022-11-30T09:58:00.429Z,65.00
2022-11-30T10:02:15.409Z,64.45
2022-11-30T10:06:29.096Z,65.93
2022-11-30T10:10:41.434Z,64.97
2022-11-30T10:14:58.703Z,68.75
2022-11-30T10:19:18.907Z,65.30
2022-11-30T10:23:28.838Z,59.65
2022-11-30T10:27:54.982Z,61.35
2022-11-30T10:31:59.360Z,62.45
2022-11-30T10:36:13.385Z,59.08
2022-11-30T10:40:44.185Z,59.05
2022-11-30T10:44:57.321Z,59.95
2022-11-30T10:49:05.455Z,57.97
2022-11-30T10:53:10.148Z,58.92
2022-11-30T10:57:14.414Z,50.83
2022-11-30T11:01:35.828Z,56.45
2022-11-30T11:05:37.721Z,52.45
2022-11-30T11:10:01.286Z,53.95
2022-11-30T11:14:14.420Z,58.87
2022-11-30T11:18:16.024Z,56.95
2022-11-30T11:22:20.622Z,61.35
2022-11-30T11:26:27.691Z,53.65
2022-11-30T11:30:31.085Z,64.80
2022-11-30T11:34:35.289Z,60.70
2022-11-30T11:38:46.385Z,52.97
2022-11-30T11:42:58.120Z,57.17
2022-11-30T11:47:02.506Z,56.37
2022-11-30T11:51:08.464Z,53.50
2022-11-30T11:55:19.556Z,58.45
2022-11-30T11:59:47.292Z,56.35
2022-11-30T12:08:19.282Z,52.90
2022-11-30T12:12:20.925Z,51.72
2022-11-30T12:16:31.459Z,52.70
2022-11-30T12:20:43.640Z,54.63
2022-11-30T12:25:06.116Z,55.20
2022-11-30T12:29:17.443Z,54.85
2022-11-30T12:33:28.330Z,55.17
2022-11-30T12:38:02.790Z,57.25
2022-11-30T12:42:15.031Z,57.72
2022-11-30T12:46:27.414Z,58.05
2022-11-30T12:50:47.360Z,56.78
2022-11-30T12:55:19.332Z,58.72
2022-11-30T12:59:51.775Z,54.53
2022-11-30T13:04:18.054Z,53.65
2022-11-30T13:09:13.795Z,54.65
2022-11-30T13:13:19.838Z,56.72
2022-11-30T13:17:22.981Z,52.28
2022-11-30T13:21:41.996Z,60.10
2022-11-30T13:26:09.252Z,57.95
2022-11-30T13:30:40.963Z,58.53
2022-11-30T13:34:42.774Z,58.45
2022-11-30T13:38:44.443Z,56.78
2022-11-30T13:42:51.659Z,54.28
2022-11-30T13:46:53.760Z,57.55
2022-11-30T13:50:55.497Z,57.38
2022-11-30T13:54:58.188Z,53.08
2022-11-30T13:59:31.865Z,59.35
2022-11-30T14:03:33.667Z,54.13
2022-11-30T14:07:37.683Z,56.40
2022-11-30T14:11:41.452Z,56.63
2022-11-30T14:15:43.056Z,59.50
2022-11-30T14:19:51.657Z,65.05
2022-11-30T14:23:58.555Z,55.58
2022-11-30T14:28:02.827Z,57.40
2022-11-30T14:32:29.654Z,56.17
2022-11-30T14:36:38.860Z,71.05
2022-11-30T14:40:50.419Z,52.85
2022-11-30T14:44:53.204Z,55.65
2022-11-30T14:49:12.508Z,51.80
2022-11-30T14:53:58.267Z,49.47
2022-11-30T14:58:25.379Z,48.83
2022-11-30T15:02:37.248Z,50.20
2022-11-30T15:06:40.455Z,47.15
2022-11-30T15:10:42.939Z,41.17
2022-11-30T15:15:04.136Z,42.72
2022-11-30T15:19:25.871Z,44.92
2022-11-30T15:23:27.896Z,40.03
2022-11-30T15:27:29.680Z,40.45
2022-11-30T15:31:38.228Z,41.88
2022-11-30T15:36:13.741Z,34.72
2022-11-30T15:40:10.671Z,38.97
2022-11-30T15:44:24.759Z,40.22
2022-11-30T15:48:29.252Z,40.97
2022-11-30T15:52:33.369Z,41.17
2022-11-30T15:56:36.178Z,38.88
2022-11-30T16:00:37.893Z,40.92
2022-11-30T16:04:57.689Z,46.63
2022-11-30T16:09:17.540Z,48.92
2022-11-30T16:13:21.527Z,60.40
2022-11-30T16:17:23.550Z,34.08
2022-11-30T16:21:25.281Z,39.22
2022-11-30T16:25:26.994Z,39.60
2022-11-30T16:29:28.666Z,52.95
2022-11-30T16:33:30.419Z,44.72
2022-11-30T16:37:32.056Z,63.63
2022-11-30T16:41:35.558Z,45.88
2022-11-30T16:45:38.090Z,57.62
2022-11-30T16:49:39.811Z,53.78
2022-11-30T16:53:41.402Z,56.95
2022-11-30T16:57:43.360Z,50.10
2022-11-30T17:01:47.593Z,54.50
2022-11-30T17:05:49.373Z,54.35
2022-11-30T17:09:51.026Z,50.38
2022-11-30T17:13:52.700Z,52.45
2022-11-30T17:17:58.197Z,52.88
2022-11-30T17:21:59.884Z,51.22
2022-11-30T17:26:01.577Z,52.45
2022-11-30T17:30:03.576Z,55.92
2022-11-30T17:34:06.455Z,55.42
2022-11-30T17:38:08.166Z,55.38
2022-11-30T17:42:09.844Z,61.28
2022-11-30T17:46:17.926Z,73.93
2022-11-30T17:50:20.004Z,69.70
2022-11-30T17:54:21.653Z,67.62
2022-11-30T17:58:23.280Z,70.72
2022-11-30T18:02:25.256Z,66.15
2022-11-30T18:06:27.359Z,68.50
2022-11-30T18:10:29.034Z,63.55
2022-11-30T18:14:30.659Z,68.15
2022-11-30T18:18:32.348Z,63.42
2022-11-30T18:22:34.058Z,63.33
2022-11-30T18:26:35.757Z,66.05
2022-11-30T18:30:37.822Z,65.32
2022-11-30T18:34:40.057Z,53.38
2022-11-30T18:38:41.771Z,58.22
2022-11-30T18:42:43.444Z,62.62
2022-11-30T18:46:45.182Z,56.42
2022-11-30T18:50:47.265Z,63.87
2022-11-30T18:54:49.192Z,49.33
2022-11-30T18:58:56.217Z,54.60
2022-11-30T19:02:57.858Z,48.30
2022-11-30T19:06:59.576Z,44.90
2022-11-30T19:11:05.318Z,41.85
2022-11-30T19:15:07.580Z,42.42
2022-11-30T19:19:12.584Z,48.35
2022-11-30T19:23:14.178Z,45.92
2022-11-30T19:27:15.812Z,47.00
2022-11-30T19:31:19.824Z,37.38
2022-11-30T19:35:22.954Z,40.88
2022-11-30T19:39:24.645Z,37.10
2022-11-30T19:43:26.251Z,35.95
2022-11-30T19:47:27.951Z,29.67
2022-11-30T19:51:30.942Z,27.60
2022-11-30T19:55:33.136Z,25.45
2022-11-30T19:59:34.753Z,26.50
2022-11-30T20:03:36.402Z,25.77
2022-11-30T20:07:38.096Z,27.30
2022-11-30T20:11:40.158Z,22.45
2022-11-30T20:15:41.878Z,21.90
2022-11-30T20:19:43.584Z,23.00
2022-11-30T20:23:47.327Z,23.70
2022-11-30T20:27:49.787Z,25.20
2022-11-30T20:31:51.448Z,25.45
2022-11-30T20:35:53.057Z,24.90
2022-11-30T20:39:54.677Z,25.15
2022-11-30T20:43:56.381Z,21.95
2022-11-30T20:47:57.976Z,23.50
2022-11-30T20:51:59.722Z,22.15
2022-11-30T20:56:01.378Z,25.30
2022-11-30T21:00:07.640Z,23.23
2022-11-30T21:04:13.519Z,25.48
2022-11-30T21:08:15.183Z,25.67
2022-11-30T21:12:17.077Z,27.05
2022-11-30T21:16:27.185Z,28.48
2022-11-30T21:20:30.125Z,29.90
2022-11-30T21:24:32.040Z,31.40
2022-11-30T21:28:37.999Z,27.73
2022-11-30T21:32:39.999Z,28.73
2022-11-30T21:36:42.260Z,29.20
2022-11-30T21:40:53.962Z,26.95
2022-11-30T21:44:55.603Z,33.22
2022-11-30T21:48:57.266Z,29.45
2022-11-30T21:52:58.923Z,27.95
2022-11-30T21:57:00.571Z,28.10
2022-11-30T22:01:02.894Z,29.75
2022-11-30T22:05:04.920Z,30.90
2022-11-30T22:09:10.984Z,34.33
2022-11-30T22:13:12.621Z,33.70
2022-11-30T22:17:14.274Z,37.00
2022-11-30T22:21:24.633Z,28.67
2022-11-30T22:25:26.425Z,33.83
2022-11-30T22:29:29.221Z,39.97
2022-11-30T22:33:34.978Z,34.97
2022-11-30T22:37:36.846Z,35.88
2022-11-30T22:41:40.276Z,33.00
2022-11-30T22:45:41.875Z,37.15
2022-11-30T22:49:43.556Z,36.05
2022-11-30T22:53:47.471Z,35.90
2022-11-30T22:57:49.119Z,41.05
2022-11-30T23:01:51.388Z,37.78
2022-11-30T23:05:54.466Z,38.88
2022-11-30T23:09:57.303Z,36.47
2022-11-30T23:13:59.009Z,39.72
2022-11-30T23:18:00.617Z,41.47
2022-11-30T23:22:02.227Z,40.60
2022-11-30T23:26:15.847Z,45.00
2022-11-30T23:30:17.500Z,42.58
2022-11-30T23:34:21.590Z,42.13
2022-11-30T23:38:23.264Z,40.08
2022-11-30T23:42:24.906Z,43.53
2022-11-30T23:46:26.637Z,49.22
2022-11-30T23:50:28.321Z,46.58
2022-11-30T23:54:29.979Z,44.00
2022-11-30T23:58:32.703Z,47.45
